sensor_id;sensor_type;location;lat;lon;timestamp;P1;durP1;ratioP1;P2;durP2;ratioP2
64339;SDS011;63709;53.258;-8.814;2023-05-17T00:00:36;15.07;;;5.10;;
64339;SDS011;63709;53.258;-8.814;2023-05-17T00:03:02;22.05;;;5.90;;
64339;SDS011;63709;53.258;-8.814;2023-05-17T00:05:28;19.15;;;5.82;;
64339;SDS011;63709;53.258;-8.814;2023-05-17T00:07:54;14.18;;;4.97;;
64339;SDS011;63709;53.258;-8.814;2023-05-17T00:10:19;22.23;;;5.80;;
64339;SDS011;63709;53.258;-8.814;2023-05-17T00:12:47;17.90;;;6.32;;
64339;SDS011;63709;53.258;-8.814;2023-05-17T00:15:15;11.60;;;5.13;;
64339;SDS011;63709;53.258;-8.814;2023-05-17T00:17:40;8.40;;;4.90;;
64339;SDS011;63709;53.258;-8.814;2023-05-17T00:20:06;13.23;;;4.90;;
64339;SDS011;63709;53.258;-8.814;2023-05-17T00:24:59;16.43;;;6.10;;
64339;SDS011;63709;53.258;-8.814;2023-05-17T00:27:25;13.88;;;5.25;;
64339;SDS011;63709;53.258;-8.814;2023-05-17T00:29:52;19.05;;;5.40;;
64339;SDS011;63709;53.258;-8.814;2023-05-17T00:32:17;14.75;;;5.32;;
64339;SDS011;63709;53.258;-8.814;2023-05-17T00:34:43;14.50;;;5.10;;
64339;SDS011;63709;53.258;-8.814;2023-05-17T00:37:09;13.25;;;5.10;;
64339;SDS011;63709;53.258;-8.814;2023-05-17T00:39:36;12.75;;;5.78;;
64339;SDS011;63709;53.258;-8.814;2023-05-17T00:42:02;13.32;;;4.93;;
64339;SDS011;63709;53.258;-8.814;2023-05-17T00:44:29;11.25;;;4.70;;
64339;SDS011;63709;53.258;-8.814;2023-05-17T00:46:55;13.65;;;5.80;;
64339;SDS011;63709;53.258;-8.814;2023-05-17T00:49:23;13.65;;;6.00;;
64339;SDS011;63709;53.258;-8.814;2023-05-17T00:54:18;16.45;;;5.75;;
64339;SDS011;63709;53.258;-8.814;2023-05-17T00:59:12;17.88;;;5.47;;
64339;SDS011;63709;53.258;-8.814;2023-05-17T01:01:42;14.25;;;6.22;;
64339;SDS011;63709;53.258;-8.814;2023-05-17T01:04:10;20.40;;;6.43;;
64339;SDS011;63709;53.258;-8.814;2023-05-17T01:06:35;20.40;;;6.95;;
64339;SDS011;63709;53.258;-8.814;2023-05-17T01:09:02;17.83;;;9.63;;
64339;SDS011;63709;53.258;-8.814;2023-05-17T01:11:38;26.20;;;8.93;;
64339;SDS011;63709;53.258;-8.814;2023-05-17T01:20:43;17.77;;;7.60;;
64339;SDS011;63709;53.258;-8.814;2023-05-17T01:28:54;15.90;;;6.95;;
64339;SDS011;63709;53.258;-8.814;2023-05-17T01:31:23;18.13;;;6.60;;
64339;SDS011;63709;53.258;-8.814;2023-05-17T01:33:50;23.92;;;7.53;;
64339;SDS011;63709;53.258;-8.814;2023-05-17T01:36:16;15.52;;;6.55;;
64339;SDS011;63709;53.258;-8.814;2023-05-17T01:38:43;12.88;;;6.72;;
64339;SDS011;63709;53.258;-8.814;2023-05-17T01:41:17;14.52;;;6.03;;
64339;SDS011;63709;53.258;-8.814;2023-05-17T01:46:35;16.33;;;6.55;;
64339;SDS011;63709;53.258;-8.814;2023-05-17T01:51:49;13.43;;;5.93;;
64339;SDS011;63709;53.258;-8.814;2023-05-17T01:54:30;16.35;;;5.72;;
64339;SDS011;63709;53.258;-8.814;2023-05-17T01:57:02;12.32;;;6.35;;
64339;SDS011;63709;53.258;-8.814;2023-05-17T01:59:30;16.50;;;6.05;;
64339;SDS011;63709;53.258;-8.814;2023-05-17T02:02:00;12.63;;;6.10;;
64339;SDS011;63709;53.258;-8.814;2023-05-17T02:04:33;14.02;;;5.90;;
64339;SDS011;63709;53.258;-8.814;2023-05-17T02:07:01;12.50;;;5.18;;
64339;SDS011;63709;53.258;-8.814;2023-05-17T02:09:28;13.20;;;6.00;;
64339;SDS011;63709;53.258;-8.814;2023-05-17T02:11:53;11.35;;;6.13;;
64339;SDS011;63709;53.258;-8.814;2023-05-17T02:14:19;16.10;;;6.17;;
64339;SDS011;63709;53.258;-8.814;2023-05-17T02:16:46;19.27;;;6.43;;
64339;SDS011;63709;53.258;-8.814;2023-05-17T02:19:11;24.30;;;8.52;;
64339;SDS011;63709;53.258;-8.814;2023-05-17T02:21:37;15.93;;;6.20;;
64339;SDS011;63709;53.258;-8.814;2023-05-17T02:24:03;15.63;;;6.38;;
64339;SDS011;63709;53.258;-8.814;2023-05-17T02:26:29;15.45;;;6.35;;
64339;SDS011;63709;53.258;-8.814;2023-05-17T02:28:55;18.75;;;6.43;;
64339;SDS011;63709;53.258;-8.814;2023-05-17T02:33:54;15.05;;;6.63;;
64339;SDS011;63709;53.258;-8.814;2023-05-17T02:36:21;16.20;;;6.72;;
64339;SDS011;63709;53.258;-8.814;2023-05-17T02:38:47;16.08;;;6.40;;
64339;SDS011;63709;53.258;-8.814;2023-05-17T02:41:14;16.35;;;6.07;;
64339;SDS011;63709;53.258;-8.814;2023-05-17T02:43:41;12.18;;;5.75;;
64339;SDS011;63709;53.258;-8.814;2023-05-17T02:46:12;10.48;;;5.78;;
64339;SDS011;63709;53.258;-8.814;2023-05-17T02:48:38;10.80;;;5.68;;
64339;SDS011;63709;53.258;-8.814;2023-05-17T02:51:04;15.35;;;6.88;;
64339;SDS011;63709;53.258;-8.814;2023-05-17T02:53:29;13.85;;;6.07;;
64339;SDS011;63709;53.258;-8.814;2023-05-17T02:55:56;15.68;;;6.35;;
64339;SDS011;63709;53.258;-8.814;2023-05-17T02:58:22;14.07;;;6.32;;
64339;SDS011;63709;53.258;-8.814;2023-05-17T03:00:50;17.95;;;6.40;;
64339;SDS011;63709;53.258;-8.814;2023-05-17T03:03:16;14.32;;;7.22;;
64339;SDS011;63709;53.258;-8.814;2023-05-17T03:05:42;17.98;;;7.15;;
64339;SDS011;63709;53.258;-8.814;2023-05-17T03:08:08;19.13;;;6.38;;
64339;SDS011;63709;53.258;-8.814;2023-05-17T03:10:34;15.75;;;6.97;;
64339;SDS011;63709;53.258;-8.814;2023-05-17T03:13:00;13.05;;;6.00;;
64339;SDS011;63709;53.258;-8.814;2023-05-17T03:15:25;15.00;;;5.90;;
64339;SDS011;63709;53.258;-8.814;2023-05-17T03:17:56;12.82;;;5.93;;
64339;SDS011;63709;53.258;-8.814;2023-05-17T03:20:22;16.10;;;6.30;;
64339;SDS011;63709;53.258;-8.814;2023-05-17T03:22:48;14.98;;;5.97;;
64339;SDS011;63709;53.258;-8.814;2023-05-17T03:25:14;12.80;;;6.00;;
64339;SDS011;63709;53.258;-8.814;2023-05-17T03:27:39;11.05;;;5.60;;
64339;SDS011;63709;53.258;-8.814;2023-05-17T03:30:05;12.75;;;6.07;;
64339;SDS011;63709;53.258;-8.814;2023-05-17T03:34:57;16.33;;;6.43;;
64339;SDS011;63709;53.258;-8.814;2023-05-17T03:37:24;18.20;;;7.43;;
64339;SDS011;63709;53.258;-8.814;2023-05-17T03:39:49;18.58;;;6.90;;
64339;SDS011;63709;53.258;-8.814;2023-05-17T03:42:15;17.92;;;6.47;;
64339;SDS011;63709;53.258;-8.814;2023-05-17T03:44:41;14.75;;;6.60;;
64339;SDS011;63709;53.258;-8.814;2023-05-17T03:47:07;15.05;;;6.40;;
64339;SDS011;63709;53.258;-8.814;2023-05-17T03:49:32;11.35;;;6.30;;
64339;SDS011;63709;53.258;-8.814;2023-05-17T03:51:58;13.18;;;6.47;;
64339;SDS011;63709;53.258;-8.814;2023-05-17T03:54:25;13.65;;;5.93;;
64339;SDS011;63709;53.258;-8.814;2023-05-17T03:56:50;15.77;;;6.53;;
64339;SDS011;63709;53.258;-8.814;2023-05-17T03:59:17;17.33;;;7.20;;
64339;SDS011;63709;53.258;-8.814;2023-05-17T04:01:43;12.63;;;5.97;;
64339;SDS011;63709;53.258;-8.814;2023-05-17T04:04:09;20.42;;;6.38;;
64339;SDS011;63709;53.258;-8.814;2023-05-17T04:06:35;14.65;;;6.30;;
64339;SDS011;63709;53.258;-8.814;2023-05-17T04:09:02;12.00;;;6.40;;
64339;SDS011;63709;53.258;-8.814;2023-05-17T04:11:29;14.38;;;5.95;;
64339;SDS011;63709;53.258;-8.814;2023-05-17T04:13:57;13.77;;;6.70;;
64339;SDS011;63709;53.258;-8.814;2023-05-17T04:16:29;12.85;;;6.80;;
64339;SDS011;63709;53.258;-8.814;2023-05-17T04:18:54;14.18;;;6.45;;
64339;SDS011;63709;53.258;-8.814;2023-05-17T04:21:21;13.30;;;6.47;;
64339;SDS011;63709;53.258;-8.814;2023-05-17T04:23:47;16.17;;;5.95;;
64339;SDS011;63709;53.258;-8.814;2023-05-17T04:26:13;15.27;;;7.15;;
64339;SDS011;63709;53.258;-8.814;2023-05-17T04:28:40;16.13;;;7.20;;
64339;SDS011;63709;53.258;-8.814;2023-05-17T04:31:05;15.95;;;6.45;;
64339;SDS011;63709;53.258;-8.814;2023-05-17T04:33:32;17.20;;;7.55;;
64339;SDS011;63709;53.258;-8.814;2023-05-17T04:35:58;9.80;;;6.25;;
64339;SDS011;63709;53.258;-8.814;2023-05-17T04:38:25;16.95;;;7.30;;
64339;SDS011;63709;53.258;-8.814;2023-05-17T04:40:50;17.77;;;7.03;;
64339;SDS011;63709;53.258;-8.814;2023-05-17T04:43:15;14.60;;;7.00;;
64339;SDS011;63709;53.258;-8.814;2023-05-17T04:45:41;13.02;;;6.30;;
64339;SDS011;63709;53.258;-8.814;2023-05-17T04:48:07;14.80;;;6.70;;
64339;SDS011;63709;53.258;-8.814;2023-05-17T04:50:32;13.18;;;6.03;;
64339;SDS011;63709;53.258;-8.814;2023-05-17T04:52:58;18.10;;;6.72;;
64339;SDS011;63709;53.258;-8.814;2023-05-17T04:55:24;12.68;;;6.95;;
64339;SDS011;63709;53.258;-8.814;2023-05-17T04:57:50;14.32;;;6.65;;
64339;SDS011;63709;53.258;-8.814;2023-05-17T05:00:16;14.55;;;6.47;;
64339;SDS011;63709;53.258;-8.814;2023-05-17T05:02:43;18.00;;;6.00;;
64339;SDS011;63709;53.258;-8.814;2023-05-17T05:05:09;12.45;;;6.50;;
64339;SDS011;63709;53.258;-8.814;2023-05-17T05:07:36;18.23;;;6.95;;
64339;SDS011;63709;53.258;-8.814;2023-05-17T05:10:04;13.32;;;6.88;;
64339;SDS011;63709;53.258;-8.814;2023-05-17T05:12:30;14.30;;;7.20;;
64339;SDS011;63709;53.258;-8.814;2023-05-17T05:14:56;11.60;;;6.65;;
64339;SDS011;63709;53.258;-8.814;2023-05-17T05:17:21;17.55;;;6.80;;
64339;SDS011;63709;53.258;-8.814;2023-05-17T05:19:47;18.00;;;6.95;;
64339;SDS011;63709;53.258;-8.814;2023-05-17T05:22:14;11.05;;;6.00;;
64339;SDS011;63709;53.258;-8.814;2023-05-17T05:24:40;18.50;;;7.07;;
64339;SDS011;63709;53.258;-8.814;2023-05-17T05:27:06;17.48;;;7.20;;
64339;SDS011;63709;53.258;-8.814;2023-05-17T05:29:33;13.68;;;5.88;;
64339;SDS011;63709;53.258;-8.814;2023-05-17T05:31:58;14.13;;;6.40;;
64339;SDS011;63709;53.258;-8.814;2023-05-17T05:34:26;15.45;;;6.65;;
64339;SDS011;63709;53.258;-8.814;2023-05-17T05:36:53;13.40;;;6.10;;
64339;SDS011;63709;53.258;-8.814;2023-05-17T05:39:19;13.57;;;5.88;;
64339;SDS011;63709;53.258;-8.814;2023-05-17T05:41:45;14.40;;;6.27;;
64339;SDS011;63709;53.258;-8.814;2023-05-17T05:44:11;14.13;;;5.75;;
64339;SDS011;63709;53.258;-8.814;2023-05-17T05:46:37;16.17;;;6.13;;
64339;SDS011;63709;53.258;-8.814;2023-05-17T05:49:03;12.83;;;5.57;;
64339;SDS011;63709;53.258;-8.814;2023-05-17T05:51:30;14.48;;;6.78;;
64339;SDS011;63709;53.258;-8.814;2023-05-17T05:53:57;12.40;;;5.78;;
64339;SDS011;63709;53.258;-8.814;2023-05-17T05:56:24;16.98;;;6.68;;
64339;SDS011;63709;53.258;-8.814;2023-05-17T05:58:52;15.55;;;6.25;;
64339;SDS011;63709;53.258;-8.814;2023-05-17T06:01:19;11.35;;;6.13;;
64339;SDS011;63709;53.258;-8.814;2023-05-17T06:03:45;15.80;;;6.35;;
64339;SDS011;63709;53.258;-8.814;2023-05-17T06:06:11;16.08;;;6.47;;
64339;SDS011;63709;53.258;-8.814;2023-05-17T06:08:40;12.00;;;6.22;;
64339;SDS011;63709;53.258;-8.814;2023-05-17T06:11:07;15.93;;;6.78;;
64339;SDS011;63709;53.258;-8.814;2023-05-17T06:13:33;13.27;;;6.00;;
64339;SDS011;63709;53.258;-8.814;2023-05-17T06:16:00;14.33;;;6.00;;
64339;SDS011;63709;53.258;-8.814;2023-05-17T06:18:25;13.75;;;5.43;;
64339;SDS011;63709;53.258;-8.814;2023-05-17T06:20:52;12.33;;;5.77;;
64339;SDS011;63709;53.258;-8.814;2023-05-17T06:23:17;13.02;;;5.15;;
64339;SDS011;63709;53.258;-8.814;2023-05-17T06:25:43;11.75;;;5.55;;
64339;SDS011;63709;53.258;-8.814;2023-05-17T06:28:10;16.25;;;5.97;;
64339;SDS011;63709;53.258;-8.814;2023-05-17T06:30:36;13.45;;;5.20;;
64339;SDS011;63709;53.258;-8.814;2023-05-17T06:33:02;14.57;;;5.22;;
64339;SDS011;63709;53.258;-8.814;2023-05-17T06:35:35;13.77;;;5.75;;
64339;SDS011;63709;53.258;-8.814;2023-05-17T06:38:01;16.05;;;5.10;;
64339;SDS011;63709;53.258;-8.814;2023-05-17T06:40:26;12.07;;;5.47;;
64339;SDS011;63709;53.258;-8.814;2023-05-17T06:42:52;13.00;;;5.55;;
64339;SDS011;63709;53.258;-8.814;2023-05-17T06:45:18;11.68;;;5.40;;
64339;SDS011;63709;53.258;-8.814;2023-05-17T06:47:43;12.15;;;5.47;;
64339;SDS011;63709;53.258;-8.814;2023-05-17T06:50:09;18.80;;;5.68;;
64339;SDS011;63709;53.258;-8.814;2023-05-17T06:52:36;13.02;;;5.30;;
64339;SDS011;63709;53.258;-8.814;2023-05-17T06:55:02;16.27;;;6.35;;
64339;SDS011;63709;53.258;-8.814;2023-05-17T06:57:28;15.05;;;5.70;;
64339;SDS011;63709;53.258;-8.814;2023-05-17T06:59:53;13.63;;;5.30;;
64339;SDS011;63709;53.258;-8.814;2023-05-17T07:02:19;13.90;;;5.30;;
64339;SDS011;63709;53.258;-8.814;2023-05-17T07:04:44;12.73;;;5.10;;
64339;SDS011;63709;53.258;-8.814;2023-05-17T07:07:10;20.17;;;6.07;;
64339;SDS011;63709;53.258;-8.814;2023-05-17T07:09:36;15.82;;;4.93;;
64339;SDS011;63709;53.258;-8.814;2023-05-17T07:12:03;16.48;;;5.50;;
64339;SDS011;63709;53.258;-8.814;2023-05-17T07:14:29;15.40;;;5.20;;
64339;SDS011;63709;53.258;-8.814;2023-05-17T07:16:54;21.27;;;6.25;;
64339;SDS011;63709;53.258;-8.814;2023-05-17T07:19:19;14.88;;;5.40;;
64339;SDS011;63709;53.258;-8.814;2023-05-17T07:21:45;19.07;;;5.47;;
64339;SDS011;63709;53.258;-8.814;2023-05-17T07:24:11;13.80;;;5.05;;
64339;SDS011;63709;53.258;-8.814;2023-05-17T07:26:36;18.25;;;4.95;;
64339;SDS011;63709;53.258;-8.814;2023-05-17T07:29:02;8.82;;;4.30;;
64339;SDS011;63709;53.258;-8.814;2023-05-17T07:31:27;14.23;;;5.28;;
64339;SDS011;63709;53.258;-8.814;2023-05-17T07:33:53;15.48;;;5.05;;
64339;SDS011;63709;53.258;-8.814;2023-05-17T07:36:18;12.02;;;5.03;;
64339;SDS011;63709;53.258;-8.814;2023-05-17T07:38:44;13.60;;;5.32;;
64339;SDS011;63709;53.258;-8.814;2023-05-17T07:41:09;13.73;;;5.18;;
64339;SDS011;63709;53.258;-8.814;2023-05-17T07:43:37;12.18;;;4.70;;
64339;SDS011;63709;53.258;-8.814;2023-05-17T07:46:03;16.35;;;5.10;;
64339;SDS011;63709;53.258;-8.814;2023-05-17T07:48:29;10.65;;;4.45;;
64339;SDS011;63709;53.258;-8.814;2023-05-17T07:50:55;13.05;;;4.80;;
64339;SDS011;63709;53.258;-8.814;2023-05-17T07:53:21;11.82;;;4.78;;
64339;SDS011;63709;53.258;-8.814;2023-05-17T07:55:46;15.52;;;5.22;;
64339;SDS011;63709;53.258;-8.814;2023-05-17T07:58:19;12.70;;;5.13;;
64339;SDS011;63709;53.258;-8.814;2023-05-17T08:00:45;10.00;;;4.40;;
64339;SDS011;63709;53.258;-8.814;2023-05-17T08:03:11;14.52;;;4.50;;
64339;SDS011;63709;53.258;-8.814;2023-05-17T08:05:37;12.13;;;4.57;;
64339;SDS011;63709;53.258;-8.814;2023-05-17T08:08:02;13.35;;;4.72;;
64339;SDS011;63709;53.258;-8.814;2023-05-17T08:10:28;13.02;;;4.43;;
64339;SDS011;63709;53.258;-8.814;2023-05-17T08:12:53;13.48;;;3.88;;
64339;SDS011;63709;53.258;-8.814;2023-05-17T08:15:20;13.88;;;4.63;;
64339;SDS011;63709;53.258;-8.814;2023-05-17T08:17:48;14.10;;;4.18;;
64339;SDS011;63709;53.258;-8.814;2023-05-17T08:20:14;14.82;;;4.35;;
64339;SDS011;63709;53.258;-8.814;2023-05-17T08:22:39;14.18;;;4.30;;
64339;SDS011;63709;53.258;-8.814;2023-05-17T08:25:06;17.77;;;4.15;;
64339;SDS011;63709;53.258;-8.814;2023-05-17T08:27:37;13.13;;;4.38;;
64339;SDS011;63709;53.258;-8.814;2023-05-17T08:30:03;11.50;;;4.03;;
64339;SDS011;63709;53.258;-8.814;2023-05-17T08:34:56;10.68;;;3.88;;
64339;SDS011;63709;53.258;-8.814;2023-05-17T08:37:25;10.63;;;3.63;;
64339;SDS011;63709;53.258;-8.814;2023-05-17T08:39:52;14.75;;;4.50;;
64339;SDS011;63709;53.258;-8.814;2023-05-17T08:42:22;11.23;;;4.10;;
64339;SDS011;63709;53.258;-8.814;2023-05-17T08:44:53;14.50;;;4.25;;
64339;SDS011;63709;53.258;-8.814;2023-05-17T08:47:22;12.00;;;4.03;;
64339;SDS011;63709;53.258;-8.814;2023-05-17T08:49:53;10.10;;;4.03;;
64339;SDS011;63709;53.258;-8.814;2023-05-17T08:52:21;12.57;;;4.03;;
64339;SDS011;63709;53.258;-8.814;2023-05-17T08:54:47;14.95;;;3.95;;
64339;SDS011;63709;53.258;-8.814;2023-05-17T08:57:13;11.13;;;4.13;;
64339;SDS011;63709;53.258;-8.814;2023-05-17T08:59:42;12.38;;;3.65;;
64339;SDS011;63709;53.258;-8.814;2023-05-17T09:02:08;10.50;;;3.67;;
64339;SDS011;63709;53.258;-8.814;2023-05-17T09:04:34;14.25;;;4.35;;
64339;SDS011;63709;53.258;-8.814;2023-05-17T09:07:01;13.60;;;4.13;;
64339;SDS011;63709;53.258;-8.814;2023-05-17T09:09:28;15.23;;;3.85;;
64339;SDS011;63709;53.258;-8.814;2023-05-17T09:11:53;9.80;;;3.60;;
64339;SDS011;63709;53.258;-8.814;2023-05-17T09:14:19;11.15;;;3.63;;
64339;SDS011;63709;53.258;-8.814;2023-05-17T09:16:44;11.27;;;3.80;;
64339;SDS011;63709;53.258;-8.814;2023-05-17T09:19:14;12.52;;;3.75;;
64339;SDS011;63709;53.258;-8.814;2023-05-17T09:21:44;9.05;;;3.60;;
64339;SDS011;63709;53.258;-8.814;2023-05-17T09:24:11;13.82;;;3.90;;
64339;SDS011;63709;53.258;-8.814;2023-05-17T09:29:10;10.70;;;3.67;;
64339;SDS011;63709;53.258;-8.814;2023-05-17T09:31:38;13.52;;;3.83;;
64339;SDS011;63709;53.258;-8.814;2023-05-17T09:34:04;11.82;;;3.55;;
64339;SDS011;63709;53.258;-8.814;2023-05-17T09:36:34;12.63;;;3.75;;
64339;SDS011;63709;53.258;-8.814;2023-05-17T09:39:02;10.57;;;3.58;;
64339;SDS011;63709;53.258;-8.814;2023-05-17T09:41:46;13.68;;;3.78;;
64339;SDS011;63709;53.258;-8.814;2023-05-17T09:44:14;10.02;;;4.40;;
64339;SDS011;63709;53.258;-8.814;2023-05-17T09:46:47;9.88;;;3.47;;
64339;SDS011;63709;53.258;-8.814;2023-05-17T09:49:13;9.95;;;3.60;;
64339;SDS011;63709;53.258;-8.814;2023-05-17T09:51:41;14.15;;;4.38;;
64339;SDS011;63709;53.258;-8.814;2023-05-17T09:54:08;8.27;;;3.97;;
64339;SDS011;63709;53.258;-8.814;2023-05-17T09:56:37;13.60;;;3.92;;
64339;SDS011;63709;53.258;-8.814;2023-05-17T09:59:04;12.00;;;4.38;;
64339;SDS011;63709;53.258;-8.814;2023-05-17T10:01:36;11.25;;;3.92;;
64339;SDS011;63709;53.258;-8.814;2023-05-17T10:04:05;13.75;;;3.60;;
64339;SDS011;63709;53.258;-8.814;2023-05-17T10:06:40;10.82;;;4.15;;
64339;SDS011;63709;53.258;-8.814;2023-05-17T10:09:09;12.73;;;4.45;;
64339;SDS011;63709;53.258;-8.814;2023-05-17T10:11:39;13.55;;;4.53;;
64339;SDS011;63709;53.258;-8.814;2023-05-17T10:16:52;16.00;;;4.57;;
64339;SDS011;63709;53.258;-8.814;2023-05-17T10:19:19;16.35;;;5.35;;
64339;SDS011;63709;53.258;-8.814;2023-05-17T10:21:47;14.15;;;4.90;;
64339;SDS011;63709;53.258;-8.814;2023-05-17T10:24:15;11.32;;;4.63;;
64339;SDS011;63709;53.258;-8.814;2023-05-17T10:26:42;14.82;;;5.45;;
64339;SDS011;63709;53.258;-8.814;2023-05-17T10:29:08;10.68;;;4.35;;
64339;SDS011;63709;53.258;-8.814;2023-05-17T10:34:03;13.18;;;4.60;;
64339;SDS011;63709;53.258;-8.814;2023-05-17T10:36:30;14.77;;;4.78;;
64339;SDS011;63709;53.258;-8.814;2023-05-17T10:38:57;17.73;;;6.50;;
64339;SDS011;63709;53.258;-8.814;2023-05-17T10:41:25;12.40;;;4.43;;
64339;SDS011;63709;53.258;-8.814;2023-05-17T10:43:57;12.65;;;4.88;;
64339;SDS011;63709;53.258;-8.814;2023-05-17T10:46:25;15.80;;;5.53;;
64339;SDS011;63709;53.258;-8.814;2023-05-17T10:48:55;13.95;;;5.18;;
64339;SDS011;63709;53.258;-8.814;2023-05-17T10:51:23;13.15;;;4.85;;
64339;SDS011;63709;53.258;-8.814;2023-05-17T10:54:10;14.55;;;5.28;;
64339;SDS011;63709;53.258;-8.814;2023-05-17T10:56:48;11.10;;;4.78;;
64339;SDS011;63709;53.258;-8.814;2023-05-17T10:59:18;13.38;;;5.45;;
64339;SDS011;63709;53.258;-8.814;2023-05-17T11:04:40;12.15;;;4.78;;
64339;SDS011;63709;53.258;-8.814;2023-05-17T11:09:50;11.70;;;5.45;;
64339;SDS011;63709;53.258;-8.814;2023-05-17T11:15:17;11.80;;;4.97;;
64339;SDS011;63709;53.258;-8.814;2023-05-17T11:17:53;14.80;;;5.10;;
64339;SDS011;63709;53.258;-8.814;2023-05-17T11:23:01;13.27;;;5.90;;
64339;SDS011;63709;53.258;-8.814;2023-05-17T11:25:33;12.13;;;4.93;;
64339;SDS011;63709;53.258;-8.814;2023-05-17T11:28:22;12.00;;;5.22;;
64339;SDS011;63709;53.258;-8.814;2023-05-17T11:33:17;14.57;;;5.22;;
64339;SDS011;63709;53.258;-8.814;2023-05-17T11:35:46;14.82;;;4.70;;
64339;SDS011;63709;53.258;-8.814;2023-05-17T11:38:13;17.33;;;5.05;;
64339;SDS011;63709;53.258;-8.814;2023-05-17T11:40:44;10.25;;;4.65;;
64339;SDS011;63709;53.258;-8.814;2023-05-17T11:48:10;11.68;;;4.90;;
64339;SDS011;63709;53.258;-8.814;2023-05-17T11:50:38;12.45;;;5.05;;
64339;SDS011;63709;53.258;-8.814;2023-05-17T11:53:06;13.98;;;5.18;;
64339;SDS011;63709;53.258;-8.814;2023-05-17T11:55:33;12.40;;;4.55;;
64339;SDS011;63709;53.258;-8.814;2023-05-17T11:58:03;16.20;;;5.15;;
64339;SDS011;63709;53.258;-8.814;2023-05-17T12:00:31;12.05;;;4.60;;
64339;SDS011;63709;53.258;-8.814;2023-05-17T12:02:57;12.55;;;4.50;;
64339;SDS011;63709;53.258;-8.814;2023-05-17T12:05:23;10.30;;;4.10;;
64339;SDS011;63709;53.258;-8.814;2023-05-17T12:07:49;13.75;;;4.43;;
64339;SDS011;63709;53.258;-8.814;2023-05-17T12:10:18;11.43;;;4.60;;
64339;SDS011;63709;53.258;-8.814;2023-05-17T12:12:44;9.77;;;4.45;;
64339;SDS011;63709;53.258;-8.814;2023-05-17T12:17:43;7.55;;;4.10;;
64339;SDS011;63709;53.258;-8.814;2023-05-17T12:20:12;11.82;;;4.00;;
64339;SDS011;63709;53.258;-8.814;2023-05-17T12:22:51;9.55;;;3.60;;
64339;SDS011;63709;53.258;-8.814;2023-05-17T12:25:20;8.38;;;3.42;;
64339;SDS011;63709;53.258;-8.814;2023-05-17T12:27:50;9.15;;;3.50;;
64339;SDS011;63709;53.258;-8.814;2023-05-17T12:30:16;10.63;;;3.33;;
64339;SDS011;63709;53.258;-8.814;2023-05-17T12:35:09;11.02;;;3.17;;
64339;SDS011;63709;53.258;-8.814;2023-05-17T12:37:36;8.50;;;3.78;;
64339;SDS011;63709;53.258;-8.814;2023-05-17T12:40:03;10.18;;;3.60;;
64339;SDS011;63709;53.258;-8.814;2023-05-17T12:42:31;13.93;;;4.40;;
64339;SDS011;63709;53.258;-8.814;2023-05-17T12:44:59;7.68;;;3.53;;
64339;SDS011;63709;53.258;-8.814;2023-05-17T12:47:29;12.20;;;4.00;;
64339;SDS011;63709;53.258;-8.814;2023-05-17T12:49:56;9.40;;;4.00;;
64339;SDS011;63709;53.258;-8.814;2023-05-17T12:52:24;8.57;;;3.42;;
64339;SDS011;63709;53.258;-8.814;2023-05-17T12:57:19;10.18;;;4.28;;
64339;SDS011;63709;53.258;-8.814;2023-05-17T12:59:46;11.32;;;4.00;;
64339;SDS011;63709;53.258;-8.814;2023-05-17T13:02:13;10.63;;;3.92;;
64339;SDS011;63709;53.258;-8.814;2023-05-17T13:04:41;9.73;;;3.20;;
64339;SDS011;63709;53.258;-8.814;2023-05-17T13:07:07;10.30;;;4.05;;
64339;SDS011;63709;53.258;-8.814;2023-05-17T13:12:09;8.00;;;3.20;;
64339;SDS011;63709;53.258;-8.814;2023-05-17T13:17:09;8.82;;;3.47;;
64339;SDS011;63709;53.258;-8.814;2023-05-17T13:19:36;11.00;;;4.20;;
64339;SDS011;63709;53.258;-8.814;2023-05-17T13:22:03;12.02;;;4.00;;
64339;SDS011;63709;53.258;-8.814;2023-05-17T13:24:30;9.00;;;3.60;;
64339;SDS011;63709;53.258;-8.814;2023-05-17T13:26:59;8.75;;;3.55;;
64339;SDS011;63709;53.258;-8.814;2023-05-17T13:29:27;11.73;;;4.20;;
64339;SDS011;63709;53.258;-8.814;2023-05-17T13:31:54;8.88;;;3.80;;
64339;SDS011;63709;53.258;-8.814;2023-05-17T13:34:21;9.90;;;3.83;;
64339;SDS011;63709;53.258;-8.814;2023-05-17T13:36:47;6.60;;;3.67;;
64339;SDS011;63709;53.258;-8.814;2023-05-17T13:39:17;7.80;;;3.40;;
64339;SDS011;63709;53.258;-8.814;2023-05-17T13:41:42;11.32;;;4.03;;
64339;SDS011;63709;53.258;-8.814;2023-05-17T13:46:34;11.10;;;3.90;;
64339;SDS011;63709;53.258;-8.814;2023-05-17T13:49:01;7.90;;;3.80;;
64339;SDS011;63709;53.258;-8.814;2023-05-17T13:51:29;10.35;;;3.38;;
64339;SDS011;63709;53.258;-8.814;2023-05-17T13:53:55;8.30;;;3.80;;
64339;SDS011;63709;53.258;-8.814;2023-05-17T13:56:21;11.25;;;3.90;;
64339;SDS011;63709;53.258;-8.814;2023-05-17T14:01:13;8.55;;;3.40;;
64339;SDS011;63709;53.258;-8.814;2023-05-17T14:03:40;7.25;;;3.40;;
64339;SDS011;63709;53.258;-8.814;2023-05-17T14:08:31;6.03;;;2.72;;
64339;SDS011;63709;53.258;-8.814;2023-05-17T14:10:58;8.70;;;3.35;;
64339;SDS011;63709;53.258;-8.814;2023-05-17T14:15:50;8.88;;;3.17;;
64339;SDS011;63709;53.258;-8.814;2023-05-17T14:20:40;8.35;;;4.60;;
64339;SDS011;63709;53.258;-8.814;2023-05-17T14:23:07;9.50;;;4.18;;
64339;SDS011;63709;53.258;-8.814;2023-05-17T14:25:39;8.88;;;3.80;;
64339;SDS011;63709;53.258;-8.814;2023-05-17T14:28:04;10.52;;;4.35;;
64339;SDS011;63709;53.258;-8.814;2023-05-17T14:32:56;8.40;;;3.83;;
64339;SDS011;63709;53.258;-8.814;2023-05-17T14:35:23;11.27;;;4.65;;
64339;SDS011;63709;53.258;-8.814;2023-05-17T14:40:14;10.10;;;4.10;;
64339;SDS011;63709;53.258;-8.814;2023-05-17T14:45:07;9.00;;;3.92;;
64339;SDS011;63709;53.258;-8.814;2023-05-17T14:47:33;11.23;;;4.40;;
64339;SDS011;63709;53.258;-8.814;2023-05-17T14:52:25;8.68;;;4.20;;
64339;SDS011;63709;53.258;-8.814;2023-05-17T14:54:51;9.60;;;5.20;;
64339;SDS011;63709;53.258;-8.814;2023-05-17T14:59:45;9.13;;;4.60;;
64339;SDS011;63709;53.258;-8.814;2023-05-17T15:04:36;9.93;;;4.18;;
64339;SDS011;63709;53.258;-8.814;2023-05-17T15:07:02;9.85;;;4.53;;
64339;SDS011;63709;53.258;-8.814;2023-05-17T15:11:59;7.90;;;4.40;;
64339;SDS011;63709;53.258;-8.814;2023-05-17T15:14:25;10.98;;;4.53;;
64339;SDS011;63709;53.258;-8.814;2023-05-17T15:19:18;14.30;;;4.72;;
64339;SDS011;63709;53.258;-8.814;2023-05-17T15:21:43;17.70;;;4.35;;
64339;SDS011;63709;53.258;-8.814;2023-05-17T15:26:36;7.25;;;4.32;;
64339;SDS011;63709;53.258;-8.814;2023-05-17T15:29:01;9.00;;;4.60;;
64339;SDS011;63709;53.258;-8.814;2023-05-17T15:33:53;13.55;;;5.30;;
64339;SDS011;63709;53.258;-8.814;2023-05-17T15:36:21;13.10;;;4.60;;
64339;SDS011;63709;53.258;-8.814;2023-05-17T15:38:49;7.95;;;4.10;;
64339;SDS011;63709;53.258;-8.814;2023-05-17T15:41:15;8.75;;;4.22;;
64339;SDS011;63709;53.258;-8.814;2023-05-17T15:43:42;7.28;;;4.00;;
64339;SDS011;63709;53.258;-8.814;2023-05-17T15:46:08;8.35;;;3.97;;
64339;SDS011;63709;53.258;-8.814;2023-05-17T15:48:34;12.52;;;4.18;;
64339;SDS011;63709;53.258;-8.814;2023-05-17T15:51:01;12.27;;;4.60;;
64339;SDS011;63709;53.258;-8.814;2023-05-17T15:53:28;13.73;;;4.50;;
64339;SDS011;63709;53.258;-8.814;2023-05-17T15:55:54;9.68;;;4.35;;
64339;SDS011;63709;53.258;-8.814;2023-05-17T15:58:21;15.23;;;4.30;;
64339;SDS011;63709;53.258;-8.814;2023-05-17T16:00:48;8.40;;;4.07;;
64339;SDS011;63709;53.258;-8.814;2023-05-17T16:03:14;7.47;;;3.92;;
64339;SDS011;63709;53.258;-8.814;2023-05-17T16:05:40;10.90;;;4.00;;
64339;SDS011;63709;53.258;-8.814;2023-05-17T16:08:07;13.90;;;3.90;;
64339;SDS011;63709;53.258;-8.814;2023-05-17T16:10:36;13.52;;;4.38;;